Time;durP1;ratioP1;P1;durP2;ratioP2;P2;SDS_P1;SDS_P2;PMS_P1;PMS_P2;Temp;Humidity;BMP_temperature;BMP_pressure;BME280_temperature;BME280_humidity;BME280_pressure;Samples;Min_cycle;Max_cycle;Signal;HPM_P1;HPM_P2
2023/12/31 00:01:33;;;;;;;6.47;5.23;;;;;;;;;;10439065;28;20196;-78
2023/12/31 00:06:36;;;;;;;5.00;4.40;;;8.00;99.90;;;;;;10459632;28;20229;-79
2023/12/31 00:11:39;;;;;;;5.30;4.40;;;7.90;99.90;;;;;;10464637;28;20833;-77
2023/12/31 00:16:42;;;;;;;4.53;4.13;;;7.80;99.90;;;;;;10452856;28;20248;-78
2023/12/31 00:21:44;;;;;;;5.00;3.57;;;7.80;99.90;;;;;;10462170;28;20255;-77
2023/12/31 00:26:48;;;;;;;4.67;4.30;;;7.70;99.90;;;;;;10449887;28;20228;-79
2023/12/31 00:31:51;;;;;;;4.07;3.73;;;7.60;99.90;;;;;;10456251;28;20220;-79
2023/12/31 00:36:53;;;;;;;4.40;3.97;;;7.50;99.90;;;;;;10466206;28;20848;-80
2023/12/31 00:41:57;;;;;;;4.80;4.30;;;7.40;99.90;;;;;;10438243;28;20247;-75
2023/12/31 00:46:59;;;;;;;4.23;3.80;;;7.40;99.90;;;;;;10447194;28;20635;-78
2023/12/31 00:52:02;;;;;;;4.63;4.03;;;7.30;99.90;;;;;;10436819;28;20229;-78
2023/12/31 00:57:05;;;;;;;4.50;3.90;;;7.30;99.90;;;;;;10442795;28;20217;-77
2023/12/31 01:02:08;;;;;;;4.50;4.10;;;7.30;99.90;;;;;;10429019;28;20258;-78
2023/12/31 01:07:10;;;;;;;7.43;5.83;;;7.20;99.90;;;;;;10444006;28;20221;-78
2023/12/31 01:12:14;;;;;;;5.20;4.80;;;7.20;99.90;;;;;;10447245;28;20229;-78
2023/12/31 01:17:16;;;;;;;5.07;4.67;;;7.20;99.90;;;;;;10454461;28;20209;-77
2023/12/31 01:22:18;;;;;;;6.07;4.60;;;7.10;99.90;;;;;;10426056;28;20193;-78
2023/12/31 01:27:22;;;;;;;4.73;4.33;;;7.10;99.90;;;;;;10451533;28;20609;-77
2023/12/31 01:32:24;;;;;;;4.87;4.37;;;7.10;99.90;;;;;;10449916;28;20217;-77
2023/12/31 01:37:27;;;;;;;5.33;4.30;;;7.00;99.90;;;;;;10456783;28;20772;-78
2023/12/31 01:42:31;;;;;;;6.77;4.83;;;7.00;99.90;;;;;;10464110;28;20212;-78
2023/12/31 01:47:34;;;;;;;4.93;4.53;;;7.00;99.90;;;;;;10426471;28;20224;-78
2023/12/31 01:52:36;;;;;;;4.13;3.83;;;6.90;99.90;;;;;;10439558;28;20229;-78
2023/12/31 01:57:41;;;;;;;6.67;5.00;;;6.90;99.90;;;;;;10424957;28;20721;-78
2023/12/31 02:02:47;;;;;;;4.43;4.10;;;6.90;99.90;;;;;;10434568;28;20267;-78
2023/12/31 02:07:49;;;;;;;5.60;4.50;;;6.80;99.90;;;;;;10430119;28;20209;-78
2023/12/31 02:12:54;;;;;;;4.87;4.47;;;6.80;99.90;;;;;;10457410;28;20229;-79
2023/12/31 02:17:56;;;;;;;4.43;4.00;;;6.70;99.90;;;;;;10463643;28;20194;-78
2023/12/31 02:22:58;;;;;;;8.03;5.07;;;6.70;99.90;;;;;;10435170;28;20607;-78
2023/12/31 02:28:02;;;;;;;5.60;4.23;;;6.60;99.90;;;;;;10434870;28;20228;-78
2023/12/31 02:33:06;;;;;;;4.70;4.30;;;6.60;99.90;;;;;;10441646;28;20232;-76
2023/12/31 02:38:08;;;;;;;5.30;4.40;;;6.60;99.90;;;;;;10455486;28;20200;-78
2023/12/31 02:43:12;;;;;;;4.97;4.47;;;6.50;99.90;;;;;;10455716;28;20228;-78
2023/12/31 02:48:14;;;;;;;4.80;4.40;;;6.60;99.90;;;;;;10495331;28;20662;-78
2023/12/31 02:53:17;;;;;;;5.10;4.70;;;6.70;99.90;;;;;;10480947;28;20316;-79
2023/12/31 02:58:20;;;;;;;4.70;4.30;;;6.90;99.90;;;;;;10487677;28;20205;-78
2023/12/31 03:03:23;;;;;;;4.37;4.07;;;7.10;99.90;;;;;;10496414;28;20213;-78
2023/12/31 03:08:25;;;;;;;5.20;4.47;;;7.30;99.90;;;;;;10479797;28;20200;-78
2023/12/31 03:13:29;;;;;;;5.43;4.93;;;7.50;99.90;;;;;;10477975;28;20220;-78
2023/12/31 03:18:31;;;;;;;4.77;4.43;;;7.60;99.90;;;;;;10477606;28;20258;-78
2023/12/31 03:23:33;;;;;;;4.73;4.40;;;7.80;99.90;;;;;;10477423;28;20674;-77
2023/12/31 03:28:38;;;;;;;4.50;3.87;;;8.00;99.90;;;;;;10461914;28;20667;-78
2023/12/31 03:33:40;;;;;;;4.30;3.90;;;8.10;99.90;;;;;;10482246;28;20274;-77
2023/12/31 03:38:42;;;;;;;7.20;5.13;;;8.20;99.90;;;;;;10476520;28;20200;-77
2023/12/31 03:43:46;;;;;;;5.63;4.93;;;8.20;99.90;;;;;;10497601;28;20221;-79
2023/12/31 03:48:48;;;;;;;8.27;5.13;;;8.40;99.90;;;;;;10497942;28;20250;-79
2023/12/31 03:53:52;;;;;;;5.40;4.90;;;8.40;99.90;;;;;;10498942;28;20217;-79
2023/12/31 03:58:55;;;;;;;5.20;4.60;;;8.40;99.90;;;;;;10462825;28;20201;-77
2023/12/31 04:03:58;;;;;;;4.83;4.27;;;8.50;99.90;;;;;;10481013;28;20209;-79
2023/12/31 04:09:01;;;;;;;5.53;5.13;;;8.60;99.90;;;;;;10478449;28;20243;-78
2023/12/31 04:14:04;;;;;;;5.40;4.90;;;8.60;99.90;;;;;;10496348;28;20228;-78
2023/12/31 04:19:07;;;;;;;5.97;5.37;;;8.60;99.90;;;;;;10478596;28;20195;-79
2023/12/31 04:24:09;;;;;;;4.47;4.17;;;8.60;99.90;;;;;;10480361;28;20285;-79
2023/12/31 04:29:13;;;;;;;5.00;4.50;;;8.50;99.90;;;;;;10477162;28;20221;-79
2023/12/31 04:34:16;;;;;;;5.57;5.00;;;8.50;99.90;;;;;;10464605;28;20698;-79
2023/12/31 04:39:18;;;;;;;5.00;4.60;;;8.50;99.90;;;;;;10502901;28;20204;-79
2023/12/31 04:44:22;;;;;;;3.33;3.03;;;8.50;99.90;;;;;;10481050;28;20712;-79
2023/12/31 04:49:24;;;;;;;4.47;4.17;;;8.50;99.90;;;;;;10496827;28;20684;-79
2023/12/31 04:54:26;;;;;;;4.90;4.40;;;8.60;99.90;;;;;;10496113;28;20209;-79
2023/12/31 04:59:30;;;;;;;3.80;3.50;;;8.60;99.90;;;;;;10455711;28;20250;-77
2023/12/31 05:04:33;;;;;;;4.00;3.70;;;8.60;99.90;;;;;;10461245;28;20634;-80
2023/12/31 05:09:35;;;;;;;4.10;3.80;;;8.60;99.90;;;;;;10498841;28;20224;-79
2023/12/31 05:14:39;;;;;;;4.33;3.93;;;8.60;99.90;;;;;;10494854;28;20271;-78
2023/12/31 05:19:41;;;;;;;3.97;3.60;;;8.60;99.90;;;;;;10495702;28;20200;-78
2023/12/31 05:24:44;;;;;;;4.13;3.83;;;8.60;99.90;;;;;;10495522;28;20220;-79
2023/12/31 05:29:48;;;;;;;3.50;3.30;;;8.60;99.90;;;;;;10474703;28;20224;-80
2023/12/31 05:34:50;;;;;;;4.60;4.20;;;8.50;99.90;;;;;;10477076;28;20302;-79
2023/12/31 05:39:53;;;;;;;4.70;4.23;;;8.50;99.90;;;;;;10495260;28;20184;-79
2023/12/31 05:44:56;;;;;;;3.40;3.20;;;8.40;99.90;;;;;;10491139;28;20701;-78
2023/12/31 05:49:59;;;;;;;4.40;4.00;;;8.40;99.90;;;;;;10471830;28;20690;-77
2023/12/31 05:55:01;;;;;;;3.37;3.13;;;8.40;99.90;;;;;;10489616;28;20231;-77
2023/12/31 06:00:07;;;;;;;3.87;3.57;;;8.30;99.90;;;;;;10482926;28;20254;-76
2023/12/31 06:05:17;;;;;;;3.63;3.43;;;8.30;99.90;;;;;;10489774;28;20220;-78
2023/12/31 06:10:19;;;;;;;4.70;3.80;;;8.30;99.90;;;;;;10489617;28;20243;-78
2023/12/31 06:15:23;;;;;;;4.30;3.90;;;8.30;99.90;;;;;;10489441;28;20223;-77
2023/12/31 06:20:25;;;;;;;4.07;3.77;;;8.30;99.90;;;;;;10471537;28;20185;-77
2023/12/31 06:25:28;;;;;;;4.13;3.73;;;8.30;99.90;;;;;;10495963;28;20277;-75
2023/12/31 06:30:32;;;;;;;3.27;3.07;;;8.30;99.90;;;;;;10468410;28;20228;-78
2023/12/31 06:35:34;;;;;;;4.23;3.63;;;8.40;99.90;;;;;;10500719;28;20265;-77
2023/12/31 06:40:36;;;;;;;4.37;3.97;;;8.40;99.90;;;;;;10498290;28;20739;-79
2023/12/31 06:45:41;;;;;;;3.80;3.50;;;8.40;99.90;;;;;;10496371;28;20224;-76
2023/12/31 06:50:43;;;;;;;3.97;3.67;;;8.40;99.90;;;;;;10496773;28;20217;-76
2023/12/31 06:55:45;;;;;;;4.13;3.83;;;8.40;99.90;;;;;;10496706;28;20224;-76
2023/12/31 07:00:49;;;;;;;5.70;3.57;;;8.40;99.90;;;;;;10480795;28;20262;-75
2023/12/31 07:05:51;;;;;;;3.77;3.47;;;8.40;99.70;;;;;;10493189;28;20228;-76
2023/12/31 07:10:54;;;;;;;4.47;4.17;;;8.40;99.80;;;;;;10492244;28;20236;-75
2023/12/31 07:16:00;;;;;;;3.60;3.30;;;8.40;99.90;;;;;;10492372;28;20224;-76
2023/12/31 07:21:02;;;;;;;3.47;3.17;;;8.50;99.90;;;;;;10478107;28;20327;-76
2023/12/31 07:26:04;;;;;;;2.33;2.23;;;8.50;99.80;;;;;;10494123;28;20216;-75
2023/12/31 07:31:08;;;;;;;2.50;2.40;;;8.60;98.80;;;;;;10434081;28;20220;-79
2023/12/31 07:36:10;;;;;;;2.20;2.10;;;8.80;98.30;;;;;;10494718;28;20553;-78
2023/12/31 07:41:13;;;;;;;3.17;2.37;;;8.90;97.70;;;;;;10494972;28;20201;-75
2023/12/31 07:46:17;;;;;;;3.00;2.70;;;9.00;96.90;;;;;;10476284;28;20269;-78
2023/12/31 07:51:19;;;;;;;2.70;2.50;;;9.10;96.40;;;;;;10494579;28;20265;-78
2023/12/31 07:56:22;;;;;;;2.83;2.70;;;9.20;96.20;;;;;;10494520;28;20638;-79
2023/12/31 08:01:25;;;;;;;3.00;2.80;;;9.20;96.30;;;;;;10470589;28;20254;-78
2023/12/31 08:06:28;;;;;;;3.40;3.20;;;9.40;96.00;;;;;;10476154;28;20217;-79
2023/12/31 08:11:30;;;;;;;2.47;2.37;;;9.40;96.20;;;;;;10493906;28;20216;-79
2023/12/31 08:16:34;;;;;;;3.70;3.40;;;9.50;96.30;;;;;;10475601;28;20232;-77
2023/12/31 08:21:36;;;;;;;2.47;2.27;;;9.50;96.20;;;;;;10492922;28;20246;-78
2023/12/31 08:26:39;;;;;;;2.60;2.40;;;9.50;96.40;;;;;;10492941;28;20235;-78
2023/12/31 08:31:44;;;;;;;2.70;2.47;;;9.60;96.20;;;;;;10465324;28;20277;-77
2023/12/31 08:36:46;;;;;;;2.30;2.10;;;9.60;96.30;;;;;;10493961;28;20708;-79
2023/12/31 08:41:49;;;;;;;2.80;2.33;;;9.70;95.90;;;;;;10492444;28;20204;-78
2023/12/31 08:46:52;;;;;;;2.43;2.27;;;9.80;95.00;;;;;;10491522;28;20278;-78
2023/12/31 08:51:55;;;;;;;2.73;2.53;;;9.90;94.40;;;;;;10492468;28;20285;-78
2023/12/31 08:56:57;;;;;;;2.33;2.13;;;9.80;94.80;;;;;;10490315;28;20209;-77
2023/12/31 09:02:01;;;;;;;2.53;2.33;;;9.90;94.90;;;;;;10462953;28;20200;-77
2023/12/31 09:07:03;;;;;;;2.47;2.27;;;9.90;95.20;;;;;;10491495;28;20724;-78
2023/12/31 09:12:06;;;;;;;2.50;2.40;;;10.00;94.90;;;;;;10491363;28;20246;-78
2023/12/31 09:17:10;;;;;;;2.40;2.20;;;10.00;95.00;;;;;;10492486;28;20720;-77
2023/12/31 09:22:13;;;;;;;6.80;3.00;;;10.10;94.50;;;;;;10490808;28;20192;-79
2023/12/31 09:27:15;;;;;;;2.30;2.20;;;10.10;94.30;;;;;;10486123;28;20256;-78
2023/12/31 09:32:19;;;;;;;2.47;2.27;;;10.20;94.00;;;;;;10459492;28;20215;-76
2023/12/31 09:37:22;;;;;;;3.00;2.80;;;10.20;93.50;;;;;;10472246;28;20713;-78
2023/12/31 09:42:34;;;;;;;2.97;2.67;;;10.20;94.10;;;;;;10462954;28;20191;-77
2023/12/31 09:47:38;;;;;;;3.70;3.40;;;10.30;94.50;;;;;;10438586;28;20729;-79
2023/12/31 09:52:42;;;;;;;4.83;2.70;;;10.30;94.90;;;;;;10456810;28;20219;-78
2023/12/31 09:57:47;;;;;;;2.93;2.73;;;10.40;95.30;;;;;;10461821;28;20262;-78
2023/12/31 10:02:52;;;;;;;3.10;2.90;;;10.50;95.60;;;;;;10455845;28;20201;-78
2023/12/31 10:07:55;;;;;;;4.73;3.27;;;10.60;95.60;;;;;;10465933;28;20567;-79
2023/12/31 10:12:58;;;;;;;3.07;2.77;;;10.70;95.50;;;;;;10455670;28;20298;-76
2023/12/31 10:18:04;;;;;;;3.17;2.90;;;10.70;95.30;;;;;;10446297;28;20304;-78
2023/12/31 10:23:06;;;;;;;3.10;2.80;;;10.80;95.30;;;;;;10461208;28;20244;-78
2023/12/31 10:28:09;;;;;;;4.50;3.60;;;10.80;95.40;;;;;;10448359;28;20614;-77
2023/12/31 10:33:13;;;;;;;5.37;3.30;;;10.80;95.40;;;;;;10463378;28;20232;-79
2023/12/31 10:38:16;;;;;;;3.50;3.20;;;10.80;95.40;;;;;;10435184;28;20199;-78
2023/12/31 10:43:20;;;;;;;3.10;2.90;;;10.80;94.80;;;;;;10468483;28;20217;-78
2023/12/31 10:48:25;;;;;;;4.40;4.00;;;10.90;94.40;;;;;;10454689;28;20197;-78
2023/12/31 10:53:30;;;;;;;5.13;4.50;;;11.00;95.10;;;;;;10467464;28;20270;-78
2023/12/31 10:58:32;;;;;;;5.93;4.30;;;11.10;95.80;;;;;;10455031;28;20196;-79
2023/12/31 11:03:37;;;;;;;5.07;4.53;;;11.10;96.00;;;;;;10458273;28;20241;-79
2023/12/31 11:08:41;;;;;;;4.90;4.50;;;11.20;96.20;;;;;;10459001;28;20204;-77
2023/12/31 11:13:51;;;;;;;4.70;4.30;;;11.20;96.10;;;;;;10464855;28;20294;-79
2023/12/31 11:19:18;;;;;;;3.73;3.53;;;11.30;96.40;;;;;;10468130;28;20196;-77
2023/12/31 11:24:25;;;;;;;3.57;3.30;;;11.30;96.30;;;;;;10443274;28;20229;-79
2023/12/31 11:29:28;;;;;;;4.23;3.93;;;11.40;96.80;;;;;;10464201;28;20200;-79
2023/12/31 11:34:37;;;;;;;4.13;3.73;;;11.40;96.70;;;;;;10426767;28;20283;-79
2023/12/31 11:39:39;;;;;;;5.10;4.60;;;11.40;97.00;;;;;;10456202;28;20204;-79
2023/12/31 11:44:45;;;;;;;4.30;3.83;;;11.40;96.90;;;;;;10452899;28;20208;-78
2023/12/31 11:49:52;;;;;;;4.50;4.10;;;11.20;96.80;;;;;;10466825;28;20698;-79
2023/12/31 11:55:01;;;;;;;3.43;3.13;;;11.20;97.00;;;;;;10455646;28;20648;-78
2023/12/31 12:00:06;;;;;;;3.30;3.10;;;11.10;97.80;;;;;;10465767;28;20205;-79
2023/12/31 12:05:10;;;;;;;5.80;5.30;;;10.90;99.00;;;;;;10455736;28;20220;-79
2023/12/31 12:10:13;;;;;;;3.37;2.70;;;10.80;99.90;;;;;;10444748;28;20220;-79
2023/12/31 12:15:16;;;;;;;3.00;2.80;;;10.60;99.90;;;;;;10454379;28;20759;-79
2023/12/31 12:20:20;;;;;;;2.53;2.43;;;10.40;99.90;;;;;;10438750;28;20209;-79
2023/12/31 12:25:23;;;;;;;2.97;2.77;;;10.20;99.90;;;;;;10451703;28;20220;-79
2023/12/31 12:30:27;;;;;;;2.73;2.63;;;10.00;99.90;;;;;;10455566;28;20641;-79
2023/12/31 12:35:31;;;;;;;2.60;2.50;;;9.80;99.90;;;;;;10467696;28;20225;-79
2023/12/31 12:40:33;;;;;;;2.87;2.47;;;9.80;99.90;;;;;;10446176;28;20204;-78
2023/12/31 12:45:37;;;;;;;3.80;3.00;;;9.70;99.90;;;;;;10467605;28;20209;-79
2023/12/31 12:50:42;;;;;;;3.80;3.50;;;9.60;99.90;;;;;;10465726;28;20208;-79
2023/12/31 12:55:44;;;;;;;2.33;2.23;;;9.60;99.90;;;;;;10464075;28;20271;-79
2023/12/31 13:00:47;;;;;;;3.23;3.13;;;9.50;99.90;;;;;;10463246;28;20192;-76
2023/12/31 13:05:51;;;;;;;3.00;2.90;;;9.50;99.90;;;;;;10451087;28;20263;-79
2023/12/31 13:10:53;;;;;;;4.83;4.53;;;9.40;99.90;;;;;;10461458;28;20208;-79
2023/12/31 13:15:57;;;;;;;3.20;3.00;;;9.40;99.90;;;;;;10455067;28;20220;-79
2023/12/31 13:21:02;;;;;;;3.50;3.20;;;9.30;99.90;;;;;;10470386;28;20205;-78
2023/12/31 13:26:06;;;;;;;2.80;2.70;;;9.30;99.90;;;;;;10440957;28;20237;-78
2023/12/31 13:31:08;;;;;;;2.60;2.40;;;9.20;99.90;;;;;;10458275;28;20200;-79
2023/12/31 13:36:12;;;;;;;3.07;2.83;;;9.20;99.90;;;;;;10398577;28;20233;-78
2023/12/31 13:41:15;;;;;;;4.77;2.50;;;9.20;99.90;;;;;;10452353;28;20205;-77
2023/12/31 13:46:17;;;;;;;3.50;3.17;;;9.20;99.90;;;;;;10436411;28;20582;-78
2023/12/31 13:51:22;;;;;;;2.43;2.33;;;9.20;99.90;;;;;;10434799;28;20766;-78
2023/12/31 13:56:26;;;;;;;2.47;2.37;;;9.10;99.90;;;;;;10435006;28;20255;-78
2023/12/31 14:01:28;;;;;;;2.33;2.23;;;9.10;99.90;;;;;;10423964;28;20204;-77
2023/12/31 14:06:32;;;;;;;2.20;2.10;;;9.10;99.90;;;;;;10432801;28;20691;-77
2023/12/31 14:11:36;;;;;;;2.67;2.00;;;9.20;99.90;;;;;;10436613;28;20267;-78
2023/12/31 14:16:38;;;;;;;2.17;2.07;;;9.20;99.90;;;;;;10451979;28;20580;-77
2023/12/31 14:21:43;;;;;;;2.33;2.23;;;9.30;99.90;;;;;;10491156;28;20549;-77
2023/12/31 14:26:45;;;;;;;2.10;2.00;;;9.40;99.90;;;;;;10438156;28;20633;-78
2023/12/31 14:31:48;;;;;;;2.80;2.60;;;9.50;99.90;;;;;;10446423;28;20255;-77
2023/12/31 14:36:51;;;;;;;2.90;2.80;;;9.50;99.90;;;;;;10457024;28;20228;-79
2023/12/31 14:41:54;;;;;;;2.33;2.23;;;9.50;99.90;;;;;;10433002;28;20192;-79
2023/12/31 14:46:56;;;;;;;2.60;2.47;;;9.50;99.90;;;;;;10460763;28;20640;-77
2023/12/31 14:52:00;;;;;;;2.00;1.90;;;9.50;99.90;;;;;;10455275;28;20319;-79
2023/12/31 14:57:02;;;;;;;2.23;2.13;;;9.50;99.90;;;;;;10450872;28;20595;-78
2023/12/31 15:02:06;;;;;;;2.13;2.03;;;9.40;99.90;;;;;;10421861;28;20198;-79
2023/12/31 15:07:10;;;;;;;2.27;2.17;;;9.40;99.90;;;;;;10438617;28;20220;-79
2023/12/31 15:12:12;;;;;;;2.80;2.60;;;9.30;99.90;;;;;;10488843;28;20645;-80
2023/12/31 15:17:15;;;;;;;2.27;2.17;;;9.30;99.90;;;;;;10451880;28;20220;-82
2023/12/31 15:22:18;;;;;;;2.07;1.97;;;9.30;99.90;;;;;;10506532;28;20250;-81
2023/12/31 15:27:21;;;;;;;2.00;1.90;;;9.30;99.90;;;;;;10506237;28;20221;-79
2023/12/31 15:32:23;;;;;;;2.30;2.20;;;9.30;99.90;;;;;;10501970;28;20655;-80
2023/12/31 15:37:28;;;;;;;3.00;2.83;;;9.20;99.90;;;;;;10504366;28;20209;-80
2023/12/31 15:42:31;;;;;;;2.50;2.40;;;9.20;99.90;;;;;;10460712;28;20190;-80
2023/12/31 15:47:34;;;;;;;2.30;2.20;;;9.20;99.90;;;;;;10443057;28;20283;-80
2023/12/31 15:52:38;;;;;;;2.23;2.07;;;9.10;99.90;;;;;;10443073;28;20272;-80
2023/12/31 15:57:40;;;;;;;2.33;2.23;;;9.10;99.90;;;;;;10441656;28;20623;-81
2023/12/31 16:02:42;;;;;;;2.00;1.90;;;9.10;99.90;;;;;;10481978;28;20248;-79
2023/12/31 16:07:47;;;;;;;4.17;3.83;;;9.10;99.90;;;;;;10486685;28;20228;-80
2023/12/31 16:12:49;;;;;;;2.10;2.00;;;9.20;99.90;;;;;;10503424;28;20262;-79
2023/12/31 16:17:52;;;;;;;4.10;3.80;;;9.20;99.90;;;;;;10443255;28;20546;-80
2023/12/31 16:22:55;;;;;;;5.60;5.20;;;9.20;99.90;;;;;;10465823;28;20185;-80
2023/12/31 16:27:58;;;;;;;3.27;3.07;;;9.20;99.90;;;;;;10450196;28;20201;-80
2023/12/31 16:33:01;;;;;;;2.97;2.77;;;9.10;99.90;;;;;;10406770;28;20218;-79
2023/12/31 16:38:05;;;;;;;2.50;2.40;;;9.10;99.90;;;;;;10421833;28;20633;-79
2023/12/31 16:43:08;;;;;;;8.30;7.50;;;9.00;99.90;;;;;;10493571;28;20218;-79
2023/12/31 16:48:10;;;;;;;4.80;4.40;;;9.00;99.90;;;;;;10493998;28;20188;-78
2023/12/31 16:53:14;;;;;;;3.97;3.67;;;9.00;99.90;;;;;;10494404;28;20228;-80
2023/12/31 16:58:17;;;;;;;3.53;3.23;;;8.90;99.90;;;;;;10438796;28;20217;-79
2023/12/31 17:03:19;;;;;;;3.40;3.20;;;8.90;99.90;;;;;;10436704;28;20209;-80
2023/12/31 17:08:23;;;;;;;2.40;2.30;;;8.80;99.90;;;;;;10478786;28;20205;-79
2023/12/31 17:13:26;;;;;;;2.93;2.73;;;8.80;99.90;;;;;;10483109;28;20642;-80
2023/12/31 17:18:28;;;;;;;2.60;2.40;;;8.80;99.90;;;;;;10475304;28;20802;-80
2023/12/31 17:23:32;;;;;;;2.60;2.50;;;8.80;99.90;;;;;;10440018;28;20808;-81
2023/12/31 17:28:34;;;;;;;2.70;2.50;;;8.80;99.90;;;;;;10478089;28;20242;-79
2023/12/31 17:33:37;;;;;;;4.73;3.20;;;8.80;99.90;;;;;;10439255;28;20526;-81
2023/12/31 17:38:41;;;;;;;3.10;2.80;;;8.80;99.90;;;;;;10451711;28;20590;-78
2023/12/31 17:43:43;;;;;;;3.17;2.97;;;8.80;99.90;;;;;;10447529;28;20670;-79
2023/12/31 17:48:45;;;;;;;3.10;2.90;;;8.80;99.90;;;;;;10446513;28;20205;-79
2023/12/31 17:53:50;;;;;;;2.83;2.70;;;8.80;99.90;;;;;;10447595;28;20577;-79
2023/12/31 17:58:53;;;;;;;2.50;2.40;;;8.70;99.90;;;;;;10453507;28;20212;-78
2023/12/31 18:03:55;;;;;;;3.57;3.30;;;8.70;99.90;;;;;;10439924;28;20613;-78
2023/12/31 18:08:59;;;;;;;2.40;2.30;;;8.70;99.90;;;;;;10435880;28;20201;-77
2023/12/31 18:14:01;;;;;;;2.97;2.87;;;8.70;99.90;;;;;;10435748;28;20278;-77
2023/12/31 18:19:04;;;;;;;2.37;2.17;;;8.70;99.90;;;;;;10458406;28;20204;-78
2023/12/31 18:24:08;;;;;;;2.60;2.50;;;8.70;99.90;;;;;;10461109;28;20229;-76
2023/12/31 18:29:11;;;;;;;2.50;2.33;;;8.70;99.90;;;;;;10450370;28;20728;-76
2023/12/31 18:34:13;;;;;;;2.17;2.03;;;8.70;99.90;;;;;;10471345;28;20561;-77
2023/12/31 18:39:19;;;;;;;2.63;2.43;;;8.60;99.90;;;;;;10464507;28;20283;-78
2023/12/31 18:44:21;;;;;;;2.60;2.50;;;8.60;99.90;;;;;;10442976;28;20228;-76
2023/12/31 18:49:25;;;;;;;2.30;2.20;;;8.60;99.90;;;;;;10462918;28;20317;-79
2023/12/31 18:54:28;;;;;;;2.87;2.67;;;8.60;99.90;;;;;;10455259;28;20217;-79
2023/12/31 18:59:31;;;;;;;2.87;2.67;;;8.50;99.90;;;;;;10476522;28;20220;-78
2023/12/31 19:04:33;;;;;;;4.87;3.50;;;8.50;99.90;;;;;;10438137;28;20219;-75
2023/12/31 19:09:37;;;;;;;3.10;2.80;;;8.50;99.90;;;;;;10467502;28;20196;-77
2023/12/31 19:14:39;;;;;;;3.93;3.63;;;8.50;99.90;;;;;;10455786;28;20233;-77
2023/12/31 19:19:41;;;;;;;11.50;8.90;;;8.60;99.60;;;;;;10466130;28;20204;-77
2023/12/31 19:24:45;;;;;;;3.07;2.87;;;8.50;99.70;;;;;;10449575;28;20745;-78
2023/12/31 19:29:48;;;;;;;2.13;2.03;;;8.50;99.90;;;;;;10459624;28;20204;-78
2023/12/31 19:34:50;;;;;;;2.10;2.00;;;8.50;99.80;;;;;;10455415;28;20220;-77
2023/12/31 19:39:54;;;;;;;3.93;3.63;;;8.50;99.90;;;;;;10464232;28;20259;-75
2023/12/31 19:44:56;;;;;;;2.73;2.53;;;8.50;99.90;;;;;;10450480;28;20706;-78
2023/12/31 19:49:58;;;;;;;12.73;8.47;;;8.50;99.40;;;;;;10458856;28;20255;-77
2023/12/31 19:55:02;;;;;;;3.47;3.13;;;8.50;99.50;;;;;;10468344;28;20267;-76
2023/12/31 20:00:05;;;;;;;10.03;7.03;;;8.40;99.80;;;;;;10455805;28;20205;-78
2023/12/31 20:05:09;;;;;;;3.40;3.10;;;8.40;99.70;;;;;;10439205;28;20594;-78
2023/12/31 20:10:17;;;;;;;4.13;3.80;;;8.40;99.50;;;;;;10440456;28;20200;-78
2023/12/31 20:15:20;;;;;;;2.47;2.37;;;8.40;99.80;;;;;;10417342;28;20217;-77
2023/12/31 20:20:22;;;;;;;2.90;2.70;;;8.40;99.10;;;;;;10459729;28;20670;-76
2023/12/31 20:25:27;;;;;;;3.27;3.00;;;8.40;99.30;;;;;;10466954;28;20286;-76
2023/12/31 20:30:29;;;;;;;6.33;2.50;;;8.40;99.20;;;;;;10455071;28;20201;-77
2023/12/31 20:35:32;;;;;;;4.50;3.20;;;8.40;99.40;;;;;;10443214;28;20275;-77
2023/12/31 20:40:36;;;;;;;2.93;2.73;;;8.30;99.00;;;;;;10426259;28;20578;-77
2023/12/31 20:45:38;;;;;;;3.10;2.90;;;8.30;99.30;;;;;;10434994;28;20267;-76
2023/12/31 20:50:43;;;;;;;3.60;2.67;;;8.30;99.40;;;;;;10434274;28;20216;-78
2023/12/31 20:55:47;;;;;;;3.00;2.70;;;8.30;99.40;;;;;;10433647;28;20306;-79
2023/12/31 21:00:49;;;;;;;3.67;3.37;;;8.30;99.10;;;;;;10438421;28;20212;-77
2023/12/31 21:05:52;;;;;;;5.17;4.50;;;8.30;99.10;;;;;;10436014;28;20221;-79
2023/12/31 21:10:56;;;;;;;4.73;3.60;;;8.30;99.20;;;;;;10456133;28;20190;-79
2023/12/31 21:15:59;;;;;;;2.93;2.73;;;8.30;99.10;;;;;;10452949;28;20245;-77
2023/12/31 21:21:01;;;;;;;5.97;5.07;;;8.20;99.00;;;;;;10437079;28;20205;-79
2023/12/31 21:26:05;;;;;;;4.00;3.70;;;8.10;98.90;;;;;;10434552;28;20694;-77
2023/12/31 21:31:07;;;;;;;6.87;2.50;;;8.00;99.20;;;;;;10438320;28;20209;-77
2023/12/31 21:36:09;;;;;;;3.20;2.93;;;8.00;99.20;;;;;;10451401;28;20618;-76
2023/12/31 21:41:19;;;;;;;4.17;3.87;;;8.00;99.30;;;;;;10450568;28;20197;-76
2023/12/31 21:46:32;;;;;;;3.93;3.53;;;7.90;99.30;;;;;;10439802;28;20302;-76
2023/12/31 21:51:34;;;;;;;3.10;2.80;;;7.90;99.20;;;;;;10441115;28;20274;-78
2023/12/31 21:56:38;;;;;;;4.87;4.33;;;7.80;99.00;;;;;;10469540;28;20217;-79
2023/12/31 22:01:40;;;;;;;9.57;8.57;;;7.80;99.10;;;;;;10451919;28;20197;-78
2023/12/31 22:06:43;;;;;;;9.30;7.87;;;7.70;99.20;;;;;;10457915;28;20639;-77
2023/12/31 22:11:47;;;;;;;6.83;5.20;;;7.70;99.20;;;;;;10484565;28;20196;-75
2023/12/31 22:16:49;;;;;;;7.60;6.13;;;7.60;99.40;;;;;;10442435;28;20315;-76
2023/12/31 22:21:52;;;;;;;12.97;6.37;;;7.60;99.50;;;;;;10413271;28;20197;-78
2023/12/31 22:26:55;;;;;;;107.00;67.90;;;7.60;99.20;;;;;;10444684;28;20563;-78
2023/12/31 22:31:58;;;;;;;4.60;3.90;;;7.60;99.20;;;;;;10444531;28;20263;-79
2023/12/31 22:37:00;;;;;;;7.53;2.90;;;7.50;99.10;;;;;;10477683;28;20224;-80
2023/12/31 22:42:04;;;;;;;4.93;3.57;;;7.40;99.40;;;;;;10427743;28;20726;-76
2023/12/31 22:47:07;;;;;;;2.80;2.47;;;7.40;99.30;;;;;;10435303;28;20751;-78
2023/12/31 22:52:09;;;;;;;6.43;3.83;;;7.40;99.30;;;;;;10448058;28;20201;-79
2023/12/31 22:57:13;;;;;;;6.87;6.20;;;7.40;99.30;;;;;;10450202;28;20355;-79
2023/12/31 23:02:16;;;;;;;14.60;11.93;;;7.30;99.40;;;;;;10475073;28;20238;-79
2023/12/31 23:07:18;;;;;;;32.80;20.70;;;7.30;99.40;;;;;;10500427;28;20216;-80
2023/12/31 23:12:22;;;;;;;51.53;37.07;;;7.30;99.10;;;;;;10504155;28;20260;-79
2023/12/31 23:17:24;;;;;;;55.80;43.97;;;7.30;99.20;;;;;;10485215;28;20616;-79
2023/12/31 23:22:27;;;;;;;49.13;39.90;;;7.30;99.10;;;;;;10503591;28;20201;-79
2023/12/31 23:27:30;;;;;;;31.33;23.10;;;7.30;99.00;;;;;;10497002;28;20225;-79
2023/12/31 23:32:33;;;;;;;23.13;18.43;;;7.30;99.20;;;;;;10483336;28;20201;-80
2023/12/31 23:37:36;;;;;;;23.53;16.50;;;7.20;99.10;;;;;;10502830;28;20216;-79
2023/12/31 23:42:40;;;;;;;23.60;15.80;;;7.30;99.20;;;;;;10502604;28;20611;-80
2023/12/31 23:47:42;;;;;;;25.23;14.97;;;7.30;99.20;;;;;;10488076;28;20396;-79
2023/12/31 23:52:45;;;;;;;26.47;16.47;;;7.40;99.00;;;;;;10486816;28;20200;-79
2023/12/31 23:57:48;;;;;;;22.00;15.57;;;7.40;98.80;;;;;;10475295;28;20710;-78
